Flight Track Log - Related Links

Times and Time Zones

All times are in EDT time to prevent confusion due to time zone crossing. See the DAL1784 flight status page for this flight to view local times or setup timezone preferences in your user account.

Time Position Orientation Groundspeed Altitude Reporting Facility
EDT Latitude Longitude Course Direction KTS MPH feet Rate Location/Type
Mon 12:56:46 PM 32.8581 -80.0981 280° West 254 292 4,000  Level Jacksonville Center
Mon 12:57:46 PM 32.8700 -80.1769 284° West 269 310 6,000 2,550 Climbing Jacksonville Center
Mon 12:58:46 PM 32.8886 -80.2678 283° West 281 323 9,100 2,450 Climbing Jacksonville Center
Mon 12:59:46 PM 32.9075 -80.3664 285° West 288 331 10,900 1,765 Climbing Jacksonville Center
Mon 01:00:45 PM 32.9328 -80.4819 288° West 324 373 12,600 2,067 Climbing Jacksonville Center
Mon 01:01:45 PM 32.9664 -80.6047 301° West 367 422 15,000 2,300 Climbing Jacksonville Center
Mon 01:02:45 PM 33.0247 -80.7197 300° West 388 447 17,200 1,950 Climbing Jacksonville Center
Mon 01:03:45 PM 33.0831 -80.8397 300° West 409 471 18,900 1,850 Climbing Jacksonville Center
Mon 01:04:45 PM 33.1433 -80.9650 300° West 421 484 20,900 1,550 Climbing Jacksonville Center
Mon 01:05:45 PM 33.2036 -81.0903 299° West 427 491 22,000 550 Climbing Jacksonville Center
Mon 01:06:45 PM 33.2617 -81.2133 284° West 427 491 22,000  Level Jacksonville Center
Mon 01:07:45 PM 33.2928 -81.3592 271° West 433 498 22,000  Level Jacksonville Center
Mon 01:09:16 PM 33.2953 -81.5561 270° West 420 483 22,000  Level Atlanta Center
Mon 01:10:16 PM 33.2961 -81.6978 271° West 420 483 22,000  Level Atlanta Center
Mon 01:11:16 PM 33.2986 -81.8392 270° West 420 483 22,000  Level Atlanta Center
Mon 01:12:16 PM 33.2989 -81.9783 270° West 420 483 22,000  Level Atlanta Center
Mon 01:13:16 PM 33.2992 -82.1175 271° West 420 483 22,000  Level Atlanta Center
Mon 01:14:16 PM 33.3014 -82.2592 270° West 420 483 22,000  Level Atlanta Center
Mon 01:15:16 PM 33.3011 -82.3983 271° West 420 483 22,000  Level Atlanta Center
Mon 01:16:16 PM 33.3031 -82.5400 267° West 420 483 22,000  Level Atlanta Center
Mon 01:17:16 PM 33.2961 -82.6794 265° West 420 483 22,000  Level Atlanta Center
Mon 01:18:16 PM 33.2850 -82.8186 267° West 420 483 22,000  Level Atlanta Center
Mon 01:19:16 PM 33.2781 -82.9603 265° West 425 489 22,000  Level Atlanta Center
Mon 01:20:16 PM 33.2667 -83.1022 265° West 425 489 22,000  Level Atlanta Center
Mon 01:21:16 PM 33.2572 -83.2439 265° West 431 496 22,000 -50 Level Atlanta Center
Mon 01:22:16 PM 33.2456 -83.3881 266° West 436 502 21,900 -1,200 Descending Atlanta Center
Mon 01:23:16 PM 33.2381 -83.5222 268° West 431 496 19,600 -2,564 Descending Atlanta Center
Mon 01:24:06 PM 33.2333 -83.6500 262° West 407 468 17,200 -2,690 Descending Atlanta TRACON
Mon 01:25:12 PM 33.2167 -83.7833 304° West 391 450 14,400 -1,905 Descending Atlanta TRACON
Mon 01:26:12 PM 33.2833 -83.9000 305° West 396 456 13,200 -1,161 Descending Atlanta TRACON
Mon 01:27:16 PM 33.3475 -84.0089 310° West 376 433 12,000 -581 Descending Atlanta Center
Mon 01:28:16 PM 33.4144 -84.1061 311° West 384 442 12,000  Level Atlanta Center
Mon 01:29:12 PM 33.4833 -84.2000 306° West 381 438 12,000 -52 Level Atlanta TRACON
Mon 01:30:12 PM 33.5333 -84.2833 284° West 314 361 11,900 -400 Descending Atlanta TRACON
Mon 01:31:12 PM 33.5500 -84.3667 270° West 254 292 11,200 -1,150 Descending Atlanta TRACON
Mon 01:32:12 PM 33.5500 -84.4500 270° West 247 284 9,600 -1,750 Descending Atlanta TRACON
Mon 01:33:12 PM 33.5500 -84.5333 270° West 223 257 7,700 -2,200 Descending Atlanta TRACON
Mon 01:34:12 PM 33.5500 -84.6000 360° North 227 261 5,200 -2,000 Descending Atlanta TRACON
Mon 01:35:18 PM 33.6167 -84.6000 90° East 218 251 3,500 -1,300 Descending Atlanta TRACON
Mon 01:36:12 PM 33.6167 -84.5500 90° East 192 221 2,600 -900 Descending Atlanta TRACON
Mon 01:37:18 PM 33.6167 -84.4833 90° East 157 181 1,700 -818 Descending Atlanta TRACON

Login

Don't have an account? Register now (free) for customized features, flight alerts, and more!